Time;durP1;ratioP1;P1;durP2;ratioP2;P2;SDS_P1;SDS_P2;PMS_P1;PMS_P2;Temp;Humidity;BMP_temperature;BMP_pressure;BME280_temperature;BME280_humidity;BME280_pressure;Samples;Min_cycle;Max_cycle;Signal;HPM_P1;HPM_P2
2024/04/11 00:00:25;;;;;;;5.07;3.10;;;;;;;8.66;82.63;102236.28;5343288;26;20280;-81
2024/04/11 00:02:51;;;;;;;3.37;2.97;;;;;;;8.69;82.61;102230.00;5347357;26;20277;-82
2024/04/11 00:05:19;;;;;;;5.47;3.20;;;;;;;8.71;82.13;102233.50;5339860;26;20296;-82
2024/04/11 00:07:45;;;;;;;6.87;3.30;;;;;;;8.69;82.36;102230.88;5344876;26;20237;-82
2024/04/11 00:10:13;;;;;;;7.53;2.90;;;;;;;8.70;82.36;102229.09;5342595;26;20775;-82
2024/04/11 00:12:39;;;;;;;4.57;3.30;;;;;;;8.69;82.19;102238.00;5345498;26;20237;-81
2024/04/11 00:15:10;;;;;;;5.63;3.27;;;;;;;8.69;82.14;102243.28;5339031;26;21129;-81
2024/04/11 00:17:36;;;;;;;4.13;3.00;;;;;;;8.69;81.69;102238.00;5345736;26;20240;-82
2024/04/11 00:20:05;;;;;;;4.80;2.90;;;;;;;8.76;81.01;102238.69;5333692;26;20279;-81
2024/04/11 00:22:31;;;;;;;5.33;2.77;;;;;;;8.77;80.64;102245.72;5343570;26;20645;-81
2024/04/11 00:24:59;;;;;;;6.07;3.00;;;;;;;8.78;80.28;102242.16;5338340;26;20229;-81
2024/04/11 00:27:25;;;;;;;10.73;3.67;;;;;;;8.77;79.88;102243.06;5345523;26;20253;-81
2024/04/11 00:29:53;;;;;;;7.97;2.57;;;;;;;8.76;79.38;102239.56;5345261;26;20263;-81
2024/04/11 00:32:22;;;;;;;6.90;3.10;;;;;;;8.77;79.39;102243.06;5341078;26;20271;-81
2024/04/11 00:34:50;;;;;;;4.60;2.83;;;;;;;8.75;79.19;102243.13;5343045;26;20229;-81
2024/04/11 00:37:16;;;;;;;6.23;2.83;;;;;;;8.76;78.95;102239.56;5334474;26;20601;-82
2024/04/11 00:39:44;;;;;;;5.40;3.13;;;;;;;8.75;78.70;102237.81;5335311;26;20249;-81
2024/04/11 00:42:10;;;;;;;6.03;3.13;;;;;;;8.72;79.08;102237.91;5337128;26;20639;-81
2024/04/11 00:44:40;;;;;;;4.47;3.07;;;;;;;8.68;79.23;102241.56;5339036;26;20233;-81
2024/04/11 00:47:09;;;;;;;5.73;3.30;;;;;;;8.64;79.52;102242.56;5341700;26;20241;-81
2024/04/11 00:49:41;;;;;;;5.53;3.10;;;;;;;8.61;79.62;102245.31;5344911;26;20593;-81
2024/04/11 00:52:07;;;;;;;5.00;2.77;;;;;;;8.59;80.00;102244.50;5341537;26;20237;-80
2024/04/11 00:54:36;;;;;;;6.67;2.80;;;;;;;8.57;79.94;102233.91;5341880;26;20275;-81
2024/04/11 00:57:05;;;;;;;3.80;3.20;;;;;;;8.53;79.90;102234.06;5336203;26;20325;-81
2024/04/11 00:59:35;;;;;;;5.67;3.17;;;;;;;8.49;80.30;102235.06;5344340;26;20263;-82
2024/04/11 01:02:02;;;;;;;4.73;3.03;;;;;;;8.44;80.43;102232.53;5344241;26;20248;-82
2024/04/11 01:04:33;;;;;;;4.97;3.50;;;;;;;8.42;80.86;102234.34;5339637;26;20279;-82
2024/04/11 01:07:06;;;;;;;5.93;3.47;;;;;;;8.40;80.49;102233.56;5339103;26;20585;-81
2024/04/11 01:09:36;;;;;;;4.77;3.03;;;;;;;8.38;81.00;102239.81;5340275;26;20237;-81
2024/04/11 01:12:03;;;;;;;5.13;3.13;;;;;;;8.34;80.74;102236.38;5335939;26;20229;-82
2024/04/11 01:14:32;;;;;;;6.57;3.23;;;;;;;8.32;81.39;102232.88;5332557;26;20233;-81
2024/04/11 01:16:57;;;;;;;5.50;3.37;;;;;;;8.29;81.51;102241.78;5342717;26;20276;-82
2024/04/11 01:19:26;;;;;;;5.27;3.43;;;;;;;8.27;81.55;102248.03;5340452;26;20252;-81
2024/04/11 01:21:53;;;;;;;6.67;3.30;;;;;;;8.24;81.80;102245.50;5332282;26;20240;-82
2024/04/11 01:24:24;;;;;;;4.50;3.03;;;;;;;8.21;81.98;102238.47;5333868;26;20508;-81
2024/04/11 01:26:50;;;;;;;5.30;3.53;;;;;;;8.18;81.76;102229.72;5339492;26;20237;-82
2024/04/11 01:29:18;;;;;;;5.30;2.83;;;;;;;8.14;82.07;102220.09;5344717;26;20280;-81
2024/04/11 01:31:44;;;;;;;5.30;2.70;;;;;;;8.11;80.97;102234.31;5345339;26;20233;-82
2024/04/11 01:34:12;;;;;;;5.23;2.97;;;;;;;8.08;81.03;102215.84;5340035;26;20624;-82
2024/04/11 01:36:38;;;;;;;6.57;3.43;;;;;;;8.08;81.17;102217.63;5337187;26;20241;-81
2024/04/11 01:39:09;;;;;;;7.70;3.20;;;;;;;8.04;81.06;102216.84;5335396;26;20275;-81
2024/04/11 01:41:38;;;;;;;4.77;3.50;;;;;;;8.01;81.79;102219.59;5343068;26;20793;-82
2024/04/11 01:44:06;;;;;;;4.97;3.30;;;;;;;7.96;82.19;102222.38;5337527;26;20234;-81
2024/04/11 01:46:32;;;;;;;6.80;3.47;;;;;;;7.94;82.82;102218.88;5346905;26;20275;-82
2024/04/11 01:49:01;;;;;;;4.70;3.60;;;;;;;7.91;83.17;102221.59;5343471;26;20229;-82
2024/04/11 01:51:26;;;;;;;4.90;3.50;;;;;;;7.87;83.36;102212.03;5336933;26;20272;-82
2024/04/11 01:53:56;;;;;;;4.80;3.27;;;;;;;7.86;83.74;102220.00;5339097;26;20707;-82
2024/04/11 01:56:24;;;;;;;6.43;3.60;;;;;;;7.86;83.47;102217.38;5342035;26;20237;-81
2024/04/11 01:58:55;;;;;;;5.27;3.90;;;;;;;7.87;83.40;102217.31;5343117;26;20272;-82
2024/04/11 02:01:20;;;;;;;5.57;3.33;;;;;;;7.88;83.37;102216.38;5347808;26;20259;-83
2024/04/11 02:03:48;;;;;;;7.37;3.47;;;;;;;7.91;83.28;102216.31;5341716;26;20233;-81
2024/04/11 02:06:14;;;;;;;5.17;3.07;;;;;;;7.94;83.10;102220.66;5345134;26;20241;-82
2024/04/11 02:08:42;;;;;;;6.33;3.57;;;;;;;7.96;83.41;102217.06;5346280;26;20283;-81
2024/04/11 02:11:10;;;;;;;7.77;3.37;;;;;;;7.99;83.46;102208.16;5342858;26;20613;-81
2024/04/11 02:13:38;;;;;;;5.23;3.53;;;;;;;8.01;83.32;102206.31;5336108;26;20756;-82
2024/04/11 02:16:07;;;;;;;6.50;3.67;;;;;;;8.05;83.19;102204.47;5342720;26;20322;-81
2024/04/11 02:18:35;;;;;;;29.67;5.10;;;;;;;8.05;83.47;102207.97;5343039;26;20233;-81
2024/04/11 02:21:01;;;;;;;6.97;3.53;;;;;;;8.05;83.77;102207.97;5344245;26;20233;-81
2024/04/11 02:23:30;;;;;;;5.83;3.30;;;;;;;8.03;83.58;102209.81;5340235;26;20289;-81
2024/04/11 02:25:57;;;;;;;7.43;4.20;;;;;;;8.02;83.43;102208.06;5336813;26;20319;-82
2024/04/11 02:28:25;;;;;;;6.43;3.37;;;;;;;8.01;83.87;102207.19;5336909;26;20271;-81
2024/04/11 02:30:52;;;;;;;5.00;3.40;;;;;;;8.02;83.94;102210.72;5340828;26;20232;-81
2024/04/11 02:33:29;;;;;;;4.33;3.47;;;;;;;7.99;83.94;102210.81;5327434;26;20257;-82
2024/04/11 02:35:55;;;;;;;7.70;3.70;;;;;;;7.99;83.71;102208.16;5343428;26;20274;-82
2024/04/11 02:38:25;;;;;;;6.67;3.77;;;;;;;7.97;83.98;102215.28;5342726;26;20248;-81
2024/04/11 02:40:51;;;;;;;5.23;3.80;;;;;;;7.94;83.76;102218.88;5345022;26;20244;-81
2024/04/11 02:43:20;;;;;;;4.57;3.40;;;;;;;7.90;84.00;102225.16;5341854;26;20279;-81
2024/04/11 02:45:48;;;;;;;7.23;3.70;;;;;;;7.90;83.77;102230.47;5335115;26;20280;-81
2024/04/11 02:48:16;;;;;;;5.57;3.50;;;;;;;7.86;83.76;102228.84;5339383;26;20229;-81
2024/04/11 02:50:45;;;;;;;5.40;3.47;;;;;;;7.81;83.85;102230.75;5344141;26;20245;-81
2024/04/11 02:53:13;;;;;;;6.13;3.53;;;;;;;7.79;84.22;102234.34;5327539;26;20241;-81
2024/04/11 02:55:40;;;;;;;5.33;3.80;;;;;;;7.76;84.32;102232.63;5337245;26;20241;-81
2024/04/11 02:58:08;;;;;;;4.07;3.30;;;;;;;7.74;84.52;102229.16;5327046;26;20238;-81
2024/04/11 03:00:33;;;;;;;5.03;3.50;;;;;;;7.72;84.50;102225.66;5337016;26;20798;-82
2024/04/11 03:03:02;;;;;;;5.37;3.17;;;;;;;7.71;84.42;102223.91;5336517;26;20259;-82
2024/04/11 03:05:27;;;;;;;4.07;3.23;;;;;;;7.69;84.37;102223.13;5341327;26;20973;-82
2024/04/11 03:07:58;;;;;;;4.07;2.90;;;;;;;7.68;84.20;102231.13;5343763;26;20229;-81
2024/04/11 03:10:24;;;;;;;3.27;2.50;;;;;;;7.65;83.61;102230.28;5335224;26;20236;-82
2024/04/11 03:12:53;;;;;;;6.80;3.20;;;;;;;7.62;83.66;102224.19;5343253;26;20225;-82
2024/04/11 03:15:19;;;;;;;4.90;3.33;;;;;;;7.61;83.61;102233.03;5335478;26;20323;-82
2024/04/11 03:17:48;;;;;;;4.37;2.87;;;;;;;7.58;83.25;102234.00;5342276;26;20248;-82
2024/04/11 03:20:17;;;;;;;7.33;3.10;;;;;;;7.55;83.25;102228.75;5334752;26;20237;-82
2024/04/11 03:22:45;;;;;;;5.13;2.60;;;;;;;7.55;83.07;102235.84;5343864;26;20236;-82
2024/04/11 03:25:14;;;;;;;4.57;2.80;;;;;;;7.56;82.59;102221.69;5342268;26;20237;-82
2024/04/11 03:27:42;;;;;;;4.17;2.20;;;;;;;7.58;81.51;102222.50;5337621;26;20279;-81
2024/04/11 03:30:09;;;;;;;3.00;2.00;;;;;;;7.60;80.97;102231.31;5347095;26;20233;-84
2024/04/11 03:32:38;;;;;;;6.77;2.73;;;;;;;7.62;79.79;102219.75;5346028;26;20289;-83
2024/04/11 03:35:04;;;;;;;6.03;2.60;;;;;;;7.63;79.67;102223.28;5340993;26;20355;-84
2024/04/11 03:37:32;;;;;;;2.70;1.87;;;;;;;7.71;78.07;102229.22;5343951;26;20252;-83
2024/04/11 03:39:59;;;;;;;4.80;2.07;;;;;;;7.74;78.11;102229.16;5347462;26;20603;-84
2024/04/11 03:42:30;;;;;;;3.37;2.10;;;;;;;7.79;77.50;102221.06;5346487;26;20276;-83
2024/04/11 03:45:10;;;;;;;2.57;1.80;;;;;;;7.82;77.43;102216.56;5340856;26;20248;-82
2024/04/11 03:47:42;;;;;;;4.13;2.20;;;;;;;7.84;77.15;102216.53;5344555;26;20236;-82
2024/04/11 03:50:11;;;;;;;4.10;2.13;;;;;;;7.85;76.65;102221.78;5339424;26;20237;-83
2024/04/11 03:52:36;;;;;;;3.30;1.80;;;;;;;7.85;76.50;102220.94;5337740;26;21288;-83
2024/04/11 03:55:05;;;;;;;3.70;1.97;;;;;;;7.89;75.79;102223.44;5339169;26;20240;-82
2024/04/11 03:57:33;;;;;;;3.63;1.80;;;;;;;7.95;74.75;102211.78;5345273;26;20291;-82
2024/04/11 04:00:07;;;;;;;3.20;1.70;;;;;;;8.04;74.06;102210.69;5341297;26;20245;-82
2024/04/11 04:02:33;;;;;;;1.97;1.70;;;;;;;8.04;74.18;102200.94;5331979;26;20842;-82
2024/04/11 04:05:01;;;;;;;3.23;1.80;;;;;;;8.08;73.75;102197.25;5342117;26;20303;-82
2024/04/11 04:07:28;;;;;;;3.93;1.90;;;;;;;8.12;73.41;102209.53;5337377;26;20241;-83
2024/04/11 04:09:58;;;;;;;2.87;1.97;;;;;;;8.15;73.44;102198.84;5346011;26;20245;-82
2024/04/11 04:12:24;;;;;;;3.37;1.80;;;;;;;8.17;72.78;102201.44;5330468;26;20237;-83
2024/04/11 04:14:55;;;;;;;3.30;1.80;;;;;;;8.20;73.18;102204.91;5345296;26;20287;-83
2024/04/11 04:17:23;;;;;;;3.00;1.53;;;;;;;8.26;72.33;102217.09;5338216;26;20252;-83
2024/04/11 04:19:52;;;;;;;4.90;1.67;;;;;;;8.26;72.61;102212.66;5344119;26;20229;-81
2024/04/11 04:22:17;;;;;;;2.60;1.67;;;;;;;8.28;72.28;102212.63;5340346;26;20257;-82
2024/04/11 04:24:50;;;;;;;4.10;1.90;;;;;;;8.26;72.89;102206.47;5343269;26;20266;-83
2024/04/11 04:27:17;;;;;;;3.70;1.87;;;;;;;8.25;72.87;102218.88;5343104;26;20361;-83
2024/04/11 04:29:46;;;;;;;5.17;2.67;;;;;;;8.26;72.23;102215.31;5344179;26;20292;-83
2024/04/11 04:32:16;;;;;;;2.43;1.60;;;;;;;8.27;72.14;102213.53;5343414;26;20288;-83
2024/04/11 04:34:45;;;;;;;6.73;2.07;;;;;;;8.28;71.92;102215.28;5333983;26;20245;-82
2024/04/11 04:37:11;;;;;;;2.23;1.40;;;;;;;8.33;71.82;102218.69;5340643;26;20783;-82
2024/04/11 04:39:41;;;;;;;3.50;1.70;;;;;;;8.37;71.77;102208.88;5329604;26;20233;-82
2024/04/11 04:42:07;;;;;;;2.73;1.60;;;;;;;8.37;71.89;102214.19;5324662;26;20299;-82
2024/04/11 04:44:37;;;;;;;3.30;1.77;;;;;;;8.35;71.61;102219.53;5328959;26;20593;-82
2024/04/11 04:47:15;;;;;;;3.07;1.50;;;;;;;8.37;71.63;102215.06;5336388;26;20237;-82
2024/04/11 04:49:47;;;;;;;2.73;1.80;;;;;;;8.36;71.57;102218.63;5329296;26;20272;-82
2024/04/11 04:52:13;;;;;;;2.90;1.67;;;;;;;8.42;71.38;102220.25;5339264;26;20236;-82
2024/04/11 04:54:42;;;;;;;3.47;1.83;;;;;;;8.40;71.64;102211.44;5327951;26;20280;-82
2024/04/11 04:57:08;;;;;;;3.53;1.57;;;;;;;8.41;71.48;102208.75;5340818;26;20245;-82
2024/04/11 04:59:36;;;;;;;4.23;1.50;;;;;;;8.45;71.52;102207.72;5323836;26;20288;-81
2024/04/11 05:02:03;;;;;;;6.00;2.03;;;;;;;8.48;71.60;102207.63;5341828;26;20240;-81
2024/04/11 05:04:32;;;;;;;2.30;1.70;;;;;;;8.51;71.51;102202.22;5337717;26;20767;-82
2024/04/11 05:07:02;;;;;;;3.10;1.90;;;;;;;8.56;72.34;102202.09;5344308;26;20281;-80
2024/04/11 05:09:30;;;;;;;3.80;2.20;;;;;;;8.57;72.95;102206.50;5344298;26;20272;-83
2024/04/11 05:11:57;;;;;;;6.33;2.33;;;;;;;8.55;73.41;102203.88;5346579;26;20264;-81
2024/04/11 05:14:25;;;;;;;3.33;1.80;;;;;;;8.52;73.85;102203.09;5348931;26;20241;-83
2024/04/11 05:16:52;;;;;;;3.93;2.13;;;;;;;8.46;74.23;102192.66;5337699;26;20238;-84
2024/04/11 05:19:20;;;;;;;4.60;2.43;;;;;;;8.43;74.96;102192.75;5344034;26;20752;-83
2024/04/11 05:21:46;;;;;;;4.03;2.47;;;;;;;8.41;75.20;102179.53;5331394;26;20234;-83
2024/04/11 05:24:17;;;;;;;4.90;2.50;;;;;;;8.43;75.61;102171.50;5334075;26;20279;-83
2024/04/11 05:26:50;;;;;;;3.83;2.20;;;;;;;8.44;76.00;102170.59;5334114;26;20606;-83
2024/04/11 05:29:19;;;;;;;5.43;2.30;;;;;;;8.49;76.22;102173.97;5344946;26;20233;-83
2024/04/11 05:31:45;;;;;;;3.77;2.30;;;;;;;8.50;76.04;102165.97;5333870;26;20233;-83
2024/04/11 05:34:20;;;;;;;5.47;2.10;;;;;;;8.53;76.28;102157.91;5346217;26;20287;-82
2024/04/11 05:36:45;;;;;;;5.87;2.60;;;;;;;8.58;76.74;102168.41;5340199;26;20775;-81
2024/04/11 05:39:20;;;;;;;5.57;3.43;;;;;;;8.61;76.64;102155.00;5338088;26;20297;-81
2024/04/11 05:41:46;;;;;;;4.63;2.33;;;;;;;8.66;76.38;102159.25;5329137;26;20231;-81
2024/04/11 05:44:14;;;;;;;6.57;2.33;;;;;;;8.68;76.84;102152.13;5339274;26;20292;-81
2024/04/11 05:46:41;;;;;;;3.37;1.97;;;;;;;8.73;76.89;102151.13;5340261;26;20284;-82
2024/04/11 05:49:09;;;;;;;2.67;1.67;;;;;;;8.79;76.27;102154.41;5339158;26;20295;-81
2024/04/11 05:51:35;;;;;;;5.80;1.77;;;;;;;8.85;73.96;102154.25;5336882;26;20628;-80
2024/04/11 05:54:04;;;;;;;3.07;1.63;;;;;;;8.93;73.48;102168.16;5337784;26;20240;-81
2024/04/11 05:56:34;;;;;;;3.87;1.20;;;;;;;9.02;70.96;102167.84;5341420;26;20387;-81
2024/04/11 05:59:05;;;;;;;2.00;1.10;;;;;;;9.15;68.98;102173.63;5341372;26;20678;-81
2024/04/11 06:01:34;;;;;;;1.17;0.93;;;;;;;9.30;66.82;102166.94;5338994;26;20241;-81
2024/04/11 06:04:05;;;;;;;2.80;1.00;;;;;;;9.45;65.82;102166.41;5329218;26;20650;-81
2024/04/11 06:06:31;;;;;;;1.60;1.17;;;;;;;9.60;63.51;102171.19;5339915;26;20241;-81
2024/04/11 06:09:00;;;;;;;3.10;1.37;;;;;;;9.71;62.96;102163.69;5343365;26;20237;-82
2024/04/11 06:11:26;;;;;;;2.50;1.20;;;;;;;9.82;62.30;102170.44;5334665;26;20244;-81
2024/04/11 06:13:57;;;;;;;2.83;0.83;;;;;;;9.97;61.26;102175.19;5340093;26;20741;-81
2024/04/11 06:16:24;;;;;;;2.47;1.10;;;;;;;10.12;59.70;102174.63;5338774;26;20250;-82
2024/04/11 06:18:54;;;;;;;4.03;1.10;;;;;;;10.23;59.67;102174.25;5332843;26;20241;-82
2024/04/11 06:21:31;;;;;;;2.70;1.47;;;;;;;10.35;59.45;102180.00;5344555;26;20237;-81
2024/04/11 06:24:00;;;;;;;2.83;0.90;;;;;;;10.40;60.18;102178.00;5342957;26;20266;-81
2024/04/11 06:26:26;;;;;;;2.63;1.10;;;;;;;10.51;59.19;102193.59;5327382;26;20243;-81
2024/04/11 06:28:57;;;;;;;4.23;1.57;;;;;;;10.56;58.42;102183.63;5342476;26;20284;-81
2024/04/11 06:31:24;;;;;;;3.93;1.10;;;;;;;10.61;58.21;102183.44;5340457;26;20359;-81
2024/04/11 06:33:54;;;;;;;1.93;1.00;;;;;;;10.69;58.92;102184.88;5344711;26;20225;-81
2024/04/11 06:36:20;;;;;;;3.13;1.10;;;;;;;10.73;58.00;102191.84;5337256;26;20347;-81
2024/04/11 06:38:51;;;;;;;6.20;1.70;;;;;;;10.76;57.92;102188.16;5340514;26;20350;-82
2024/04/11 06:41:22;;;;;;;2.20;1.00;;;;;;;10.83;58.09;102200.31;5339690;26;20233;-82
2024/04/11 06:43:51;;;;;;;3.33;1.20;;;;;;;10.88;57.06;102193.03;5330766;26;20233;-82
2024/04/11 06:46:19;;;;;;;2.10;1.47;;;;;;;10.94;57.43;102192.75;5327055;26;20691;-82
2024/04/11 06:48:49;;;;;;;2.53;1.07;;;;;;;10.97;56.73;102197.09;5339015;26;20588;-82
2024/04/11 06:51:19;;;;;;;3.90;1.43;;;;;;;11.03;57.12;102197.72;5336589;26;20278;-82
2024/04/11 06:53:48;;;;;;;2.67;1.10;;;;;;;11.04;56.85;102193.25;5338333;26;20246;-82
2024/04/11 06:56:17;;;;;;;2.70;1.07;;;;;;;11.10;56.83;102190.34;5343217;26;20241;-81
2024/04/11 06:58:46;;;;;;;2.27;1.03;;;;;;;11.13;56.36;102187.53;5331966;26;20298;-82
2024/04/11 07:01:15;;;;;;;2.17;1.23;;;;;;;11.14;56.31;102192.81;5340841;26;20238;-81
2024/04/11 07:03:49;;;;;;;2.37;0.97;;;;;;;11.19;56.46;102202.44;5341165;26;20249;-81
2024/04/11 07:06:21;;;;;;;4.90;1.10;;;;;;;11.24;56.77;102197.78;5344439;26;20243;-81
2024/04/11 07:08:52;;;;;;;3.57;1.13;;;;;;;11.27;56.34;102200.31;5345444;26;20241;-81
2024/04/11 07:11:19;;;;;;;3.10;1.00;;;;;;;11.35;55.67;102193.72;5346396;26;20644;-81
2024/04/11 07:13:47;;;;;;;2.37;1.20;;;;;;;11.41;55.98;102193.47;5339608;26;20236;-81
2024/04/11 07:16:16;;;;;;;2.53;1.20;;;;;;;11.41;55.50;102188.13;5345964;26;20249;-82
2024/04/11 07:18:48;;;;;;;2.63;1.10;;;;;;;11.46;55.66;102193.28;5342857;26;20309;-81
2024/04/11 07:21:17;;;;;;;3.87;1.00;;;;;;;11.48;56.54;102194.06;5345982;26;20233;-82
2024/04/11 07:23:47;;;;;;;3.23;1.00;;;;;;;11.53;54.57;102202.75;5340207;26;20276;-81
2024/04/11 07:26:15;;;;;;;2.80;1.47;;;;;;;11.56;55.07;102199.09;5339329;26;20247;-81
2024/04/11 07:28:45;;;;;;;5.07;1.23;;;;;;;11.62;55.11;102197.03;5339243;26;20781;-82
2024/04/11 07:31:12;;;;;;;2.80;1.10;;;;;;;11.64;55.41;102204.97;5336646;26;20232;-81
2024/04/11 07:33:41;;;;;;;2.13;1.23;;;;;;;11.65;55.75;102207.53;5339716;26;20244;-81
2024/04/11 07:36:10;;;;;;;2.33;1.10;;;;;;;11.71;55.12;102206.44;5335889;26;20285;-82
2024/04/11 07:38:42;;;;;;;2.43;1.03;;;;;;;11.77;54.54;102206.19;5342418;26;20277;-81
2024/04/11 07:41:16;;;;;;;2.13;1.40;;;;;;;11.79;55.50;102207.88;5341179;26;20239;-81
2024/04/11 07:43:49;;;;;;;4.53;1.00;;;;;;;11.81;54.58;102208.69;5329236;26;20237;-81
2024/04/11 07:46:15;;;;;;;4.30;1.37;;;;;;;11.87;54.00;102218.19;5342183;26;20716;-81
2024/04/11 07:48:47;;;;;;;1.87;0.90;;;;;;;11.90;54.80;102218.06;5337317;26;20356;-82
2024/04/11 07:51:16;;;;;;;2.83;1.00;;;;;;;11.96;53.75;102223.16;5337441;26;20228;-82
2024/04/11 07:53:46;;;;;;;2.10;0.90;;;;;;;11.97;54.32;102229.34;5346357;26;20951;-82
2024/04/11 07:56:15;;;;;;;4.33;1.50;;;;;;;12.00;54.29;102229.22;5348298;26;20266;-82
2024/04/11 07:58:43;;;;;;;2.33;1.10;;;;;;;12.04;54.19;102241.50;5342516;26;20233;-82
2024/04/11 08:01:09;;;;;;;3.87;1.43;;;;;;;12.09;53.68;102236.81;5338183;26;20785;-82
2024/04/11 08:03:37;;;;;;;3.50;1.13;;;;;;;12.14;54.51;102242.84;5348482;26;20235;-82
2024/04/11 08:06:05;;;;;;;3.97;1.73;;;;;;;12.20;53.72;102247.00;5344976;26;20239;-82
2024/04/11 08:08:38;;;;;;;3.07;1.30;;;;;;;12.21;53.85;102249.63;5346104;26;20308;-82
2024/04/11 08:11:06;;;;;;;2.83;1.03;;;;;;;12.22;53.61;102251.34;5334168;26;20252;-82
2024/04/11 08:13:35;;;;;;;2.93;1.13;;;;;;;12.23;53.77;102247.75;5340088;26;20243;-81
2024/04/11 08:16:01;;;;;;;3.80;1.20;;;;;;;12.27;53.91;102252.03;5342327;26;20283;-81
2024/04/11 08:18:29;;;;;;;2.00;0.83;;;;;;;12.27;53.73;102254.69;5341908;26;20233;-81
2024/04/11 08:20:55;;;;;;;4.20;1.87;;;;;;;12.27;54.21;102259.16;5341344;26;20319;-81
2024/04/11 08:23:25;;;;;;;3.00;1.27;;;;;;;12.30;54.47;102259.91;5342538;26;20351;-81
2024/04/11 08:25:55;;;;;;;2.87;1.07;;;;;;;12.33;53.83;102264.25;5345498;26;20320;-81
2024/04/11 08:28:23;;;;;;;2.23;0.87;;;;;;;12.36;53.79;102259.59;5345555;26;20685;-81
2024/04/11 08:30:51;;;;;;;1.80;0.90;;;;;;;12.38;53.93;102262.22;5342036;26;20233;-81
2024/04/11 08:33:20;;;;;;;1.77;0.80;;;;;;;12.40;54.06;102271.91;5346447;26;20610;-81
2024/04/11 08:35:47;;;;;;;4.33;1.10;;;;;;;12.45;54.17;102269.91;5342196;26;20241;-81
2024/04/11 08:38:18;;;;;;;4.73;1.17;;;;;;;12.44;53.94;102270.84;5340292;26;20700;-81
2024/04/11 08:40:44;;;;;;;3.13;1.10;;;;;;;12.48;54.83;102263.53;5340136;26;20824;-81
2024/04/11 08:43:15;;;;;;;3.37;1.10;;;;;;;12.49;54.69;102259.94;5336742;26;20892;-81
2024/04/11 08:45:42;;;;;;;0.93;0.80;;;;;;;12.51;54.58;102268.75;5338934;26;20721;-80
2024/04/11 08:48:10;;;;;;;3.43;1.67;;;;;;;12.52;55.00;102270.50;5340142;26;20253;-80
2024/04/11 08:50:41;;;;;;;1.73;0.70;;;;;;;12.54;54.50;102270.44;5342596;26;20233;-81
2024/04/11 08:53:11;;;;;;;1.97;1.03;;;;;;;12.50;53.98;102273.22;5332500;26;20735;-81
2024/04/11 08:55:37;;;;;;;5.20;1.73;;;;;;;12.53;54.59;102277.56;5336441;26;20240;-80
2024/04/11 08:58:06;;;;;;;3.20;0.87;;;;;;;12.55;54.22;102290.84;5336887;26;20238;-81
2024/04/11 09:00:39;;;;;;;3.67;1.40;;;;;;;12.55;55.03;102297.06;5343058;26;20319;-80
2024/04/11 09:03:12;;;;;;;3.37;1.37;;;;;;;12.63;55.38;102288.69;5348958;26;20259;-80
2024/04/11 09:05:38;;;;;;;2.23;1.30;;;;;;;12.65;54.78;102284.16;5339002;26;20733;-80
2024/04/11 09:08:10;;;;;;;3.23;1.40;;;;;;;12.65;54.61;102284.16;5339933;26;20233;-80
2024/04/11 09:10:37;;;;;;;2.57;1.00;;;;;;;12.67;55.66;102293.84;5345013;26;20331;-81
2024/04/11 09:13:06;;;;;;;2.40;1.03;;;;;;;12.71;55.97;102297.25;5346685;26;20235;-80
2024/04/11 09:15:32;;;;;;;4.93;1.40;;;;;;;12.77;55.65;102294.28;5344291;26;20267;-80
2024/04/11 09:18:03;;;;;;;4.40;2.23;;;;;;;12.82;55.92;102310.97;5344413;26;20245;-81
2024/04/11 09:20:32;;;;;;;4.40;1.57;;;;;;;12.85;55.24;102303.69;5341964;26;20240;-81
2024/04/11 09:23:03;;;;;;;4.03;1.10;;;;;;;12.88;54.94;102302.69;5341313;26;20279;-81
2024/04/11 09:25:30;;;;;;;2.90;1.43;;;;;;;12.92;55.44;102308.72;5333237;26;20605;-80
2024/04/11 09:28:01;;;;;;;2.70;1.00;;;;;;;12.90;55.84;102314.13;5341586;26;20244;-80
2024/04/11 09:30:29;;;;;;;4.30;1.27;;;;;;;12.91;55.09;102310.53;5346947;26;20283;-80
2024/04/11 09:33:04;;;;;;;3.23;1.17;;;;;;;12.95;55.75;102312.13;5343864;26;20307;-81
2024/04/11 09:35:40;;;;;;;2.33;1.03;;;;;;;12.98;55.78;102319.16;5338541;26;20253;-81
2024/04/11 09:38:12;;;;;;;3.93;1.07;;;;;;;13.02;55.84;102320.75;5340364;26;20240;-80
2024/04/11 09:40:42;;;;;;;1.93;1.10;;;;;;;13.05;55.93;102316.13;5336758;26;20273;-80
2024/04/11 09:43:15;;;;;;;2.23;1.13;;;;;;;13.07;55.74;102322.28;5346381;26;20244;-80
2024/04/11 09:45:49;;;;;;;3.40;1.20;;;;;;;13.10;56.49;102321.22;5332153;26;22168;-81
2024/04/11 09:48:21;;;;;;;3.67;1.07;;;;;;;13.15;55.99;102312.09;5335024;26;20582;-80
2024/04/11 09:50:51;;;;;;;4.20;1.10;;;;;;;13.18;56.16;102305.72;5338061;26;20252;-79
2024/04/11 09:53:28;;;;;;;3.57;1.10;;;;;;;13.20;56.64;102311.88;5335403;26;20241;-79
2024/04/11 09:55:54;;;;;;;3.80;1.20;;;;;;;13.29;57.70;102305.19;5343583;26;20240;-80
2024/04/11 09:58:25;;;;;;;3.37;1.20;;;;;;;13.32;58.12;102305.94;5328225;26;20690;-81
2024/04/11 10:01:04;;;;;;;5.07;1.07;;;;;;;13.40;58.79;102294.88;5326502;26;20284;-80
2024/04/11 10:03:33;;;;;;;3.47;1.10;;;;;;;13.48;60.75;102288.19;5338633;26;20237;-80
2024/04/11 10:06:13;;;;;;;3.90;1.20;;;;;;;13.52;59.61;102280.88;5338216;26;20358;-80
2024/04/11 10:08:42;;;;;;;5.07;1.33;;;;;;;13.61;59.52;102274.19;5343542;26;20229;-80
2024/04/11 10:11:10;;;;;;;3.70;0.97;;;;;;;13.61;59.35;102277.75;5344541;26;20274;-80
2024/04/11 10:13:40;;;;;;;2.50;1.17;;;;;;;13.63;60.47;102283.00;5340130;26;20245;-80
2024/04/11 10:16:07;;;;;;;2.33;0.90;;;;;;;13.65;60.87;102287.34;5338739;26;20687;-80
2024/04/11 10:18:41;;;;;;;4.60;1.60;;;;;;;13.71;59.52;102280.81;5331972;26;20268;-80
2024/04/11 10:21:12;;;;;;;2.97;1.30;;;;;;;13.77;59.60;102285.88;5333777;26;20237;-80
2024/04/11 10:23:42;;;;;;;4.40;1.30;;;;;;;13.82;59.22;102291.84;5341983;26;20279;-80
2024/04/11 10:26:14;;;;;;;3.63;0.97;;;;;;;13.85;59.08;102302.41;5341406;26;20578;-80
2024/04/11 10:28:51;;;;;;;3.07;1.10;;;;;;;13.88;59.73;102297.75;5340525;26;21186;-79
2024/04/11 10:31:17;;;;;;;3.03;1.37;;;;;;;13.93;59.83;102294.84;5338574;26;20267;-80
2024/04/11 10:33:53;;;;;;;3.07;0.90;;;;;;;13.96;60.14;102294.69;5339280;26;20229;-82
2024/04/11 10:36:21;;;;;;;3.63;1.00;;;;;;;13.99;60.38;102301.69;5334865;26;20240;-80
2024/04/11 10:38:52;;;;;;;2.23;1.00;;;;;;;14.00;60.23;102308.78;5327926;26;20271;-80
2024/04/11 10:41:19;;;;;;;3.60;0.87;;;;;;;14.01;59.32;102310.50;5334029;26;20628;-81
2024/04/11 10:43:49;;;;;;;3.70;0.80;;;;;;;14.05;59.67;102323.69;5340279;26;20249;-80
2024/04/11 10:46:20;;;;;;;2.70;1.40;;;;;;;14.08;59.22;102322.66;5335203;26;20305;-80
2024/04/11 10:48:49;;;;;;;3.43;1.03;;;;;;;14.14;59.79;102317.88;5339748;26;20237;-80
2024/04/11 10:51:15;;;;;;;3.77;1.20;;;;;;;14.19;60.13;102334.53;5337353;26;20338;-82
2024/04/11 10:53:54;;;;;;;3.93;1.17;;;;;;;14.23;59.02;102322.72;5330023;26;20282;-81
2024/04/11 10:56:21;;;;;;;3.60;1.40;;;;;;;14.31;58.08;102319.66;5325753;26;20594;-81
2024/04/11 10:58:53;;;;;;;2.83;0.90;;;;;;;14.31;58.03;102316.97;5338231;26;20878;-80
2024/04/11 11:01:26;;;;;;;2.57;1.00;;;;;;;14.35;58.49;102314.97;5328886;26;20750;-81
2024/04/11 11:03:57;;;;;;;2.77;1.20;;;;;;;14.40;59.09;102319.19;5330576;26;20332;-80
2024/04/11 11:06:24;;;;;;;5.30;1.63;;;;;;;14.45;58.51;102324.31;5332096;26;20662;-80
2024/04/11 11:08:59;;;;;;;2.33;0.90;;;;;;;14.49;57.08;102321.41;5328881;26;20717;-80
2024/04/11 11:11:26;;;;;;;3.77;1.00;;;;;;;14.49;57.78;102324.09;5334270;26;20368;-80
2024/04/11 11:13:55;;;;;;;3.93;1.00;;;;;;;14.51;57.29;102324.84;5340430;26;20342;-80
2024/04/11 11:16:21;;;;;;;4.10;1.20;;;;;;;14.53;57.19;102336.34;5336783;26;20236;-80
2024/04/11 11:18:51;;;;;;;2.20;1.00;;;;;;;14.55;57.15;102338.97;5337782;26;20267;-80
2024/04/11 11:21:19;;;;;;;4.20;1.10;;;;;;;14.56;57.44;102338.88;5334216;26;20285;-79
2024/04/11 11:23:54;;;;;;;3.20;1.00;;;;;;;14.55;57.99;102342.50;5339201;26;20233;-80
2024/04/11 11:26:27;;;;;;;7.63;1.90;;;;;;;14.58;58.03;102333.44;5330191;26;20240;-81
2024/04/11 11:28:58;;;;;;;3.93;1.60;;;;;;;14.62;58.12;102328.78;5328308;26;20329;-78
2024/04/11 11:31:31;;;;;;;5.63;1.77;;;;;;;14.65;58.44;102340.22;5331134;26;20764;-81
2024/04/11 11:33:59;;;;;;;4.47;1.30;;;;;;;14.68;58.50;102340.06;5332016;26;20342;-80
2024/04/11 11:36:25;;;;;;;2.50;1.10;;;;;;;14.70;58.49;102339.94;5335903;26;20741;-80